Flight Track Log - Related Links

Times and Time Zones

All times are in EDT time to prevent confusion due to time zone crossing. See the PDT4439 flight status page for this flight to view local times or setup timezone preferences in your user account.

Time Position Orientation Groundspeed Altitude Reporting Facility
EDT Latitude Longitude Course Direction KTS MPH feet Rate Location/Type
Tue 05:52:02 PM 43.0593 -76.0429 304° West  Level FlightAware Approximate
Tue 05:52:18 PM 43.1072 -76.1406 143° Southeast 124 143 1,500  Level Boston Center
Tue 05:56:51 PM 42.9761 -76.0047 129° Southeast 176 203 7,800 1,369 Climbing Boston Center
Tue 05:57:51 PM 42.9425 -75.9489 133° Southeast 181 208 9,100 1,350 Climbing Boston Center
Tue 05:58:51 PM 42.9086 -75.8989 136° Southeast 181 208 10,500 1,300 Climbing Boston Center
Tue 05:59:51 PM 42.8683 -75.8456 131° Southeast 188 216 11,700 1,200 Climbing Boston Center
Tue 06:00:51 PM 42.8344 -75.7928 134° Southeast 193 222 12,900 1,050 Climbing Boston Center
Tue 06:01:51 PM 42.7944 -75.7367 130° Southeast 198 228 13,800 850 Climbing Boston Center
Tue 06:02:51 PM 42.7567 -75.6753 132° Southeast 198 228 14,600 550 Climbing Boston Center
Tue 06:03:51 PM 42.7128 -75.6081 135° Southeast 210 242 14,900 200 Climbing Boston Center
Tue 06:04:51 PM 42.6625 -75.5406 132° Southeast 236 272 15,000 50 Climbing Boston Center
Tue 06:05:51 PM 42.6122 -75.4644 123° Southeast 251 289 15,000  Level Boston Center
Tue 06:06:51 PM 42.5708 -75.3778 119° Southeast 263 303 15,000 -50 Level Boston Center
Tue 06:07:51 PM 42.5336 -75.2861 120° Southeast 274 315 14,900 -50 Descending Boston Center
Tue 06:08:51 PM 42.4942 -75.1942 119° Southeast 274 315 14,900 50 Level Boston Center
Tue 06:09:51 PM 42.4586 -75.1081 120° Southeast 281 323 15,000 50 Climbing Boston Center
Tue 06:10:51 PM 42.4192 -75.0164 120° Southeast 276 318 15,000 -50 Level Boston Center
Tue 06:11:51 PM 42.3814 -74.9278 118° Southeast 276 318 14,900 -50 Descending Boston Center
Tue 06:12:51 PM 42.3458 -74.8392 121° Southeast 276 318 14,900 50 Level Boston Center
Tue 06:13:51 PM 42.3081 -74.7533 121° Southeast 276 318 15,000  Climbing Boston Center
Tue 06:14:51 PM 42.2681 -74.6650 125° Southeast 271 312 14,900  Descending Boston Center
Tue 06:15:51 PM 42.2258 -74.5822 121° Southeast 266 306 15,000  Climbing Boston Center
Tue 06:16:51 PM 42.1919 -74.5053 114° Southeast 266 306 14,900 -50 Descending Boston Center
Tue 06:17:51 PM 42.1583 -74.4033 117° Southeast 261 300 14,900 -150 Level Boston Center
Tue 06:18:51 PM 42.1244 -74.3128 119° Southeast 261 300 14,600 -450 Descending Boston Center
Tue 06:19:51 PM 42.0864 -74.2222 130° Southeast 276 318 14,000 -650 Descending Boston Center
Tue 06:20:51 PM 42.0333 -74.1367 149° Southeast 289 333 13,300 -850 Descending Boston Center
Tue 06:21:51 PM 41.9633 -74.0792 148° Southeast 294 338 12,300 -1,050 Descending Boston Center
Tue 06:22:51 PM 41.8956 -74.0214 148° Southeast 294 338 11,200 -1,000 Descending Boston Center
Tue 06:23:51 PM 41.8317 -73.9669 148° Southeast 294 338 10,300 -1,000 Descending Boston Center
Tue 06:24:51 PM 41.7553 -73.9039 150° Southeast 294 338 9,200 -1,000 Descending Boston Center
Tue 06:25:51 PM 41.6933 -73.8553 147° Southeast 294 338 8,300 -650 Descending Boston Center
Tue 06:26:51 PM 41.6233 -73.7953 152° Southeast 282 325 7,900 -171 Descending Boston Center
Tue 06:27:36 PM 41.5833 -73.7667 151° Southeast 250 288 8,000 54 Climbing New York TRACON
Tue 06:28:42 PM 41.5167 -73.7167 143° Southeast 246 283 8,000  Level New York TRACON
Tue 06:29:36 PM 41.4667 -73.6667 156° South 245 282 8,000  Level New York TRACON
Tue 06:30:42 PM 41.3833 -73.6167 166° South 243 280 8,000  Level New York TRACON
Tue 06:31:42 PM 41.3333 -73.6000 169° South 222 255 8,000  Level New York TRACON
Tue 06:32:42 PM 41.2667 -73.5833 143° Southeast 231 266 8,000 -350 Level New York TRACON
Tue 06:33:42 PM 41.2167 -73.5333 201° Southwest 256 295 7,300 -850 Descending New York TRACON
Tue 06:34:42 PM 41.1500 -73.5667 209° Southwest 254 292 6,300 -1,000 Descending New York TRACON
Tue 06:35:42 PM 41.0833 -73.6167 217° Southwest 249 287 5,300 -1,000 Descending New York TRACON
Tue 06:36:42 PM 41.0333 -73.6667 207° Southwest 252 290 4,300 -684 Descending New York TRACON
Tue 06:37:36 PM 40.9833 -73.7000 207° Southwest 209 241 4,000 -421 Descending New York TRACON
Tue 06:38:36 PM 40.9333 -73.7333 229° Southwest 190 219 3,500 -619 Descending New York TRACON
Tue 06:39:42 PM 40.9000 -73.7833 229° Southwest 170 196 2,700 -727 Descending New York TRACON

Login

Don't have an account? Register now (free) for customized features, flight alerts, and more!